This is the latest recevied weather packets stored in our database for station/object KE5OYL. If no packets are shown the sender has not sent any weather packets the latest 10 day(s).
| Time | Temp. | Humidity | Pressure | Rain* | Wind** | Luminosity | Snow |
|---|---|---|---|---|---|---|---|
| 1777910921 | 22.22° C | 54% | 1013.6 hPa | 0 mm | - | 700 W/m² | - |
| 1777910618 | 22.22° C | 55% | 1013.5 hPa | 0 mm | - | 635 W/m² | - |
| 1777910314 | 22.22° C | 54% | 1013.6 hPa | 0 mm | - | 615 W/m² | - |
| 1777910012 | 21.67° C | 57% | 1013.7 hPa | 0 mm | - | 602 W/m² | - |
| 1777909708 | 21.67° C | 57% | 1013.7 hPa | 0 mm | - | 489 W/m² | - |
| 1777909406 | 21.67° C | 58% | 1013.8 hPa | 0 mm | - | 378 W/m² | - |
| 1777909104 | 21.67° C | 57% | 1013.8 hPa | 0 mm | - | 307 W/m² | - |
| 1777908801 | 21.67° C | 58% | 1014 hPa | 0 mm | - | 590 W/m² | - |
| 1777908498 | 21.67° C | 61% | 1014 hPa | 0 mm | - | 484 W/m² | - |
| 1777908194 | 21.11° C | 62% | 1014.1 hPa | 0 mm | - | 549 W/m² | - |
| 1777907891 | 21.11° C | 62% | 1014.1 hPa | 0 mm | - | 515 W/m² | - |
| 1777907586 | 21.11° C | 62% | 1014 hPa | 0 mm | - | 530 W/m² | - |
| 1777907282 | 20.56° C | 62% | 1014.3 hPa | 0 mm | - | 456 W/m² | - |
| 1777906979 | 21.11° C | 62% | 1014.2 hPa | 0 mm | - | 319 W/m² | - |
| 1777906677 | 20.56° C | 63% | 1014.3 hPa | 0 mm | - | 483 W/m² | - |
| 1777906373 | 20.56° C | 62% | 1014 hPa | 0 mm | - | 465 W/m² | - |
| 1777906070 | 20.56° C | 65% | 1014.1 hPa | 0 mm | - | 495 W/m² | - |
| 1777905766 | 20° C | 65% | 1014.6 hPa | 0 mm | - | 387 W/m² | - |
| 1777905463 | 20° C | 66% | 1014.4 hPa | 0 mm | - | 347 W/m² | - |
| 1777905161 | 20° C | 66% | 1014.3 hPa | 0 mm | - | 323 W/m² | - |
| 1777904858 | 20° C | 67% | 1014.2 hPa | 0 mm | - | 339 W/m² | - |
| 1777904555 | 19.44° C | 68% | 1014.4 hPa | 0 mm | - | 307 W/m² | - |
| 1777904252 | 19.44° C | 68% | 1014.3 hPa | 0 mm | - | 309 W/m² | - |
| 1777903949 | 19.44° C | 68% | 1014.4 hPa | 0 mm | - | 352 W/m² | - |
| 1777903645 | 18.89° C | 69% | 1014.7 hPa | 0 mm | - | 295 W/m² | - |
* Rain latest hour (hover to see other rain measurements)
** Current wind speed in m/s (hover to see current wind gust speed)